sensor_id;sensor_type;location;lat;lon;timestamp;P1;durP1;ratioP1;P2;durP2;ratioP2
38083;SDS011;23894;51.466;7.444;2024-02-23T00:01:45;2.00;;;0.90;;
38083;SDS011;23894;51.466;7.444;2024-02-23T00:03:46;1.42;;;0.82;;
38083;SDS011;23894;51.466;7.444;2024-02-23T00:05:47;2.42;;;0.90;;
38083;SDS011;23894;51.466;7.444;2024-02-23T00:07:48;1.53;;;0.90;;
38083;SDS011;23894;51.466;7.444;2024-02-23T00:09:49;1.42;;;0.90;;
38083;SDS011;23894;51.466;7.444;2024-02-23T00:11:50;2.67;;;1.10;;
38083;SDS011;23894;51.466;7.444;2024-02-23T00:13:51;2.40;;;1.00;;
38083;SDS011;23894;51.466;7.444;2024-02-23T00:15:52;1.80;;;0.90;;
38083;SDS011;23894;51.466;7.444;2024-02-23T00:17:53;2.03;;;1.00;;
38083;SDS011;23894;51.466;7.444;2024-02-23T00:19:54;1.83;;;1.00;;
38083;SDS011;23894;51.466;7.444;2024-02-23T00:21:55;1.45;;;0.90;;
38083;SDS011;23894;51.466;7.444;2024-02-23T00:23:57;1.35;;;0.90;;
38083;SDS011;23894;51.466;7.444;2024-02-23T00:25:58;1.70;;;1.00;;
38083;SDS011;23894;51.466;7.444;2024-02-23T00:27:59;1.70;;;0.90;;
38083;SDS011;23894;51.466;7.444;2024-02-23T00:30:00;2.28;;;1.00;;
38083;SDS011;23894;51.466;7.444;2024-02-23T00:32:01;2.28;;;1.13;;
38083;SDS011;23894;51.466;7.444;2024-02-23T00:34:02;1.92;;;1.00;;
38083;SDS011;23894;51.466;7.444;2024-02-23T00:36:03;1.97;;;1.00;;
38083;SDS011;23894;51.466;7.444;2024-02-23T00:38:04;2.50;;;1.13;;
38083;SDS011;23894;51.466;7.444;2024-02-23T00:40:05;1.65;;;1.00;;
38083;SDS011;23894;51.466;7.444;2024-02-23T00:42:06;2.22;;;1.15;;
38083;SDS011;23894;51.466;7.444;2024-02-23T00:44:07;2.15;;;1.10;;
38083;SDS011;23894;51.466;7.444;2024-02-23T00:46:08;1.73;;;1.02;;
38083;SDS011;23894;51.466;7.444;2024-02-23T00:48:09;1.50;;;1.00;;
38083;SDS011;23894;51.466;7.444;2024-02-23T00:50:12;2.10;;;1.10;;
38083;SDS011;23894;51.466;7.444;2024-02-23T00:52:14;1.80;;;1.00;;
38083;SDS011;23894;51.466;7.444;2024-02-23T00:54:15;1.65;;;1.08;;
38083;SDS011;23894;51.466;7.444;2024-02-23T00:56:16;1.90;;;1.10;;
38083;SDS011;23894;51.466;7.444;2024-02-23T00:58:17;2.10;;;1.10;;
38083;SDS011;23894;51.466;7.444;2024-02-23T01:00:18;2.33;;;1.20;;
38083;SDS011;23894;51.466;7.444;2024-02-23T01:02:19;2.60;;;1.13;;
38083;SDS011;23894;51.466;7.444;2024-02-23T01:04:20;3.92;;;1.35;;
38083;SDS011;23894;51.466;7.444;2024-02-23T01:06:21;1.98;;;1.10;;
38083;SDS011;23894;51.466;7.444;2024-02-23T01:08:21;2.30;;;1.20;;
38083;SDS011;23894;51.466;7.444;2024-02-23T01:10:22;1.83;;;1.10;;
38083;SDS011;23894;51.466;7.444;2024-02-23T01:12:23;2.77;;;1.20;;
38083;SDS011;23894;51.466;7.444;2024-02-23T01:14:24;2.47;;;1.20;;
38083;SDS011;23894;51.466;7.444;2024-02-23T01:16:25;4.13;;;1.50;;
38083;SDS011;23894;51.466;7.444;2024-02-23T01:18:26;2.53;;;1.20;;
38083;SDS011;23894;51.466;7.444;2024-02-23T01:20:27;3.22;;;1.60;;
38083;SDS011;23894;51.466;7.444;2024-02-23T01:22:28;4.05;;;1.60;;
38083;SDS011;23894;51.466;7.444;2024-02-23T01:24:29;3.17;;;1.30;;
38083;SDS011;23894;51.466;7.444;2024-02-23T01:26:30;3.50;;;1.60;;
38083;SDS011;23894;51.466;7.444;2024-02-23T01:28:31;2.97;;;1.20;;
38083;SDS011;23894;51.466;7.444;2024-02-23T01:30:33;3.40;;;1.47;;
38083;SDS011;23894;51.466;7.444;2024-02-23T01:32:33;1.93;;;1.00;;
38083;SDS011;23894;51.466;7.444;2024-02-23T01:34:37;3.88;;;1.35;;
38083;SDS011;23894;51.466;7.444;2024-02-23T01:36:38;3.45;;;1.50;;
38083;SDS011;23894;51.466;7.444;2024-02-23T01:38:39;3.30;;;1.25;;
38083;SDS011;23894;51.466;7.444;2024-02-23T01:40:42;3.08;;;1.20;;
38083;SDS011;23894;51.466;7.444;2024-02-23T01:42:43;2.33;;;1.15;;
38083;SDS011;23894;51.466;7.444;2024-02-23T01:44:44;1.90;;;1.15;;
38083;SDS011;23894;51.466;7.444;2024-02-23T01:46:45;3.40;;;1.40;;
38083;SDS011;23894;51.466;7.444;2024-02-23T01:48:46;3.08;;;1.30;;
38083;SDS011;23894;51.466;7.444;2024-02-23T01:50:47;2.73;;;1.33;;
38083;SDS011;23894;51.466;7.444;2024-02-23T01:52:48;3.10;;;1.30;;
38083;SDS011;23894;51.466;7.444;2024-02-23T01:54:52;3.25;;;1.50;;
38083;SDS011;23894;51.466;7.444;2024-02-23T01:56:54;4.53;;;1.30;;
38083;SDS011;23894;51.466;7.444;2024-02-23T01:58:55;3.00;;;1.30;;
38083;SDS011;23894;51.466;7.444;2024-02-23T02:00:56;2.70;;;1.30;;
38083;SDS011;23894;51.466;7.444;2024-02-23T02:02:57;3.40;;;1.80;;
38083;SDS011;23894;51.466;7.444;2024-02-23T02:04:58;4.03;;;1.50;;
38083;SDS011;23894;51.466;7.444;2024-02-23T02:06:59;4.30;;;1.45;;
38083;SDS011;23894;51.466;7.444;2024-02-23T02:09:01;3.58;;;1.50;;
38083;SDS011;23894;51.466;7.444;2024-02-23T02:11:02;4.97;;;1.65;;
38083;SDS011;23894;51.466;7.444;2024-02-23T02:13:04;3.58;;;1.30;;
38083;SDS011;23894;51.466;7.444;2024-02-23T02:15:05;3.92;;;1.35;;
38083;SDS011;23894;51.466;7.444;2024-02-23T02:17:06;4.27;;;1.73;;
38083;SDS011;23894;51.466;7.444;2024-02-23T02:19:07;3.93;;;1.40;;
38083;SDS011;23894;51.466;7.444;2024-02-23T02:21:08;3.65;;;1.60;;
38083;SDS011;23894;51.466;7.444;2024-02-23T02:23:09;5.13;;;1.58;;
38083;SDS011;23894;51.466;7.444;2024-02-23T02:25:13;4.60;;;1.70;;
38083;SDS011;23894;51.466;7.444;2024-02-23T02:27:15;5.10;;;1.47;;
38083;SDS011;23894;51.466;7.444;2024-02-23T02:29:16;3.87;;;1.47;;
38083;SDS011;23894;51.466;7.444;2024-02-23T02:31:17;5.00;;;1.55;;
38083;SDS011;23894;51.466;7.444;2024-02-23T02:33:19;4.50;;;1.88;;
38083;SDS011;23894;51.466;7.444;2024-02-23T02:35:20;5.93;;;1.50;;
38083;SDS011;23894;51.466;7.444;2024-02-23T02:37:21;3.90;;;1.52;;
38083;SDS011;23894;51.466;7.444;2024-02-23T02:39:21;5.32;;;1.70;;
38083;SDS011;23894;51.466;7.444;2024-02-23T02:41:23;7.33;;;1.80;;
38083;SDS011;23894;51.466;7.444;2024-02-23T02:43:24;4.53;;;1.30;;
38083;SDS011;23894;51.466;7.444;2024-02-23T02:45:25;4.17;;;1.50;;
38083;SDS011;23894;51.466;7.444;2024-02-23T02:47:26;5.78;;;1.60;;
38083;SDS011;23894;51.466;7.444;2024-02-23T02:49:27;3.80;;;1.40;;
38083;SDS011;23894;51.466;7.444;2024-02-23T02:51:28;3.35;;;1.40;;
38083;SDS011;23894;51.466;7.444;2024-02-23T02:53:29;4.47;;;1.67;;
38083;SDS011;23894;51.466;7.444;2024-02-23T02:55:30;3.92;;;1.38;;
38083;SDS011;23894;51.466;7.444;2024-02-23T02:57:31;6.50;;;1.52;;
38083;SDS011;23894;51.466;7.444;2024-02-23T02:59:35;3.63;;;1.58;;
38083;SDS011;23894;51.466;7.444;2024-02-23T03:01:36;4.50;;;1.60;;
38083;SDS011;23894;51.466;7.444;2024-02-23T03:03:37;6.47;;;1.73;;
38083;SDS011;23894;51.466;7.444;2024-02-23T03:05:38;4.25;;;1.60;;
38083;SDS011;23894;51.466;7.444;2024-02-23T03:07:39;4.82;;;1.70;;
38083;SDS011;23894;51.466;7.444;2024-02-23T03:09:40;5.75;;;1.67;;
38083;SDS011;23894;51.466;7.444;2024-02-23T03:11:41;4.88;;;1.55;;
38083;SDS011;23894;51.466;7.444;2024-02-23T03:13:42;6.40;;;2.00;;
38083;SDS011;23894;51.466;7.444;2024-02-23T03:15:43;3.63;;;1.40;;
38083;SDS011;23894;51.466;7.444;2024-02-23T03:17:44;4.17;;;1.67;;
38083;SDS011;23894;51.466;7.444;2024-02-23T03:19:45;4.95;;;1.52;;
38083;SDS011;23894;51.466;7.444;2024-02-23T03:21:46;4.90;;;1.50;;
38083;SDS011;23894;51.466;7.444;2024-02-23T03:23:47;3.95;;;1.52;;
38083;SDS011;23894;51.466;7.444;2024-02-23T03:25:48;6.28;;;1.60;;
38083;SDS011;23894;51.466;7.444;2024-02-23T03:27:49;3.67;;;1.40;;
38083;SDS011;23894;51.466;7.444;2024-02-23T03:29:50;6.00;;;1.70;;
38083;SDS011;23894;51.466;7.444;2024-02-23T03:31:51;6.10;;;1.50;;
38083;SDS011;23894;51.466;7.444;2024-02-23T03:33:52;4.80;;;1.42;;
38083;SDS011;23894;51.466;7.444;2024-02-23T03:35:53;4.35;;;1.70;;
38083;SDS011;23894;51.466;7.444;2024-02-23T03:37:55;5.45;;;1.50;;
38083;SDS011;23894;51.466;7.444;2024-02-23T03:39:56;5.60;;;1.70;;
38083;SDS011;23894;51.466;7.444;2024-02-23T03:41:57;3.85;;;1.55;;
38083;SDS011;23894;51.466;7.444;2024-02-23T03:43:58;4.72;;;1.60;;
38083;SDS011;23894;51.466;7.444;2024-02-23T03:45:59;3.90;;;2.00;;
38083;SDS011;23894;51.466;7.444;2024-02-23T03:48:00;3.63;;;1.50;;
38083;SDS011;23894;51.466;7.444;2024-02-23T03:50:02;5.40;;;1.80;;
38083;SDS011;23894;51.466;7.444;2024-02-23T03:52:03;5.13;;;1.60;;
38083;SDS011;23894;51.466;7.444;2024-02-23T03:54:05;5.63;;;2.13;;
38083;SDS011;23894;51.466;7.444;2024-02-23T03:56:06;4.90;;;1.70;;
38083;SDS011;23894;51.466;7.444;2024-02-23T03:58:08;7.55;;;2.20;;
38083;SDS011;23894;51.466;7.444;2024-02-23T04:00:09;7.00;;;2.13;;
38083;SDS011;23894;51.466;7.444;2024-02-23T04:02:10;3.25;;;1.63;;
38083;SDS011;23894;51.466;7.444;2024-02-23T04:04:11;5.60;;;1.90;;
38083;SDS011;23894;51.466;7.444;2024-02-23T04:06:12;5.37;;;2.00;;
38083;SDS011;23894;51.466;7.444;2024-02-23T04:08:13;3.90;;;1.67;;
38083;SDS011;23894;51.466;7.444;2024-02-23T04:10:14;5.40;;;1.75;;
38083;SDS011;23894;51.466;7.444;2024-02-23T04:12:16;4.68;;;1.60;;
38083;SDS011;23894;51.466;7.444;2024-02-23T04:14:18;5.53;;;2.00;;
38083;SDS011;23894;51.466;7.444;2024-02-23T04:16:22;5.97;;;1.75;;
38083;SDS011;23894;51.466;7.444;2024-02-23T04:18:23;4.25;;;1.60;;
38083;SDS011;23894;51.466;7.444;2024-02-23T04:20:24;7.88;;;1.90;;
38083;SDS011;23894;51.466;7.444;2024-02-23T04:22:25;5.05;;;1.70;;
38083;SDS011;23894;51.466;7.444;2024-02-23T04:24:26;7.25;;;1.83;;
38083;SDS011;23894;51.466;7.444;2024-02-23T04:26:27;5.38;;;1.80;;
38083;SDS011;23894;51.466;7.444;2024-02-23T04:28:28;5.97;;;1.75;;
38083;SDS011;23894;51.466;7.444;2024-02-23T04:30:30;4.38;;;1.58;;
38083;SDS011;23894;51.466;7.444;2024-02-23T04:32:31;5.43;;;1.83;;
38083;SDS011;23894;51.466;7.444;2024-02-23T04:34:32;4.72;;;1.83;;
38083;SDS011;23894;51.466;7.444;2024-02-23T04:36:33;5.50;;;1.55;;
38083;SDS011;23894;51.466;7.444;2024-02-23T04:38:34;5.57;;;1.60;;
38083;SDS011;23894;51.466;7.444;2024-02-23T04:40:35;5.60;;;1.63;;
38083;SDS011;23894;51.466;7.444;2024-02-23T04:42:36;3.92;;;1.60;;
38083;SDS011;23894;51.466;7.444;2024-02-23T04:44:40;2.88;;;1.35;;
38083;SDS011;23894;51.466;7.444;2024-02-23T04:46:41;5.43;;;1.80;;
38083;SDS011;23894;51.466;7.444;2024-02-23T04:48:43;4.63;;;1.50;;
38083;SDS011;23894;51.466;7.444;2024-02-23T04:50:44;3.42;;;1.48;;
38083;SDS011;23894;51.466;7.444;2024-02-23T04:52:45;5.13;;;1.67;;
38083;SDS011;23894;51.466;7.444;2024-02-23T04:54:46;5.18;;;1.85;;
38083;SDS011;23894;51.466;7.444;2024-02-23T04:56:47;6.57;;;1.88;;
38083;SDS011;23894;51.466;7.444;2024-02-23T04:58:48;5.13;;;1.45;;
38083;SDS011;23894;51.466;7.444;2024-02-23T05:00:49;5.45;;;1.60;;
38083;SDS011;23894;51.466;7.444;2024-02-23T05:02:50;3.20;;;1.30;;
38083;SDS011;23894;51.466;7.444;2024-02-23T05:04:51;5.70;;;1.50;;
38083;SDS011;23894;51.466;7.444;2024-02-23T05:06:52;4.83;;;1.40;;
38083;SDS011;23894;51.466;7.444;2024-02-23T05:08:53;5.88;;;1.60;;
38083;SDS011;23894;51.466;7.444;2024-02-23T05:10:54;4.45;;;1.60;;
38083;SDS011;23894;51.466;7.444;2024-02-23T05:12:55;6.72;;;1.73;;
38083;SDS011;23894;51.466;7.444;2024-02-23T05:14:56;6.63;;;1.53;;
38083;SDS011;23894;51.466;7.444;2024-02-23T05:16:57;5.60;;;1.50;;
38083;SDS011;23894;51.466;7.444;2024-02-23T05:18:58;4.60;;;1.60;;
38083;SDS011;23894;51.466;7.444;2024-02-23T05:21:00;8.45;;;1.80;;
38083;SDS011;23894;51.466;7.444;2024-02-23T05:23:01;4.47;;;1.67;;
38083;SDS011;23894;51.466;7.444;2024-02-23T05:25:02;4.05;;;1.40;;
38083;SDS011;23894;51.466;7.444;2024-02-23T05:27:04;5.63;;;1.65;;
38083;SDS011;23894;51.466;7.444;2024-02-23T05:29:05;3.40;;;1.37;;
38083;SDS011;23894;51.466;7.444;2024-02-23T05:31:06;4.83;;;1.40;;
38083;SDS011;23894;51.466;7.444;2024-02-23T05:33:07;4.53;;;1.53;;
38083;SDS011;23894;51.466;7.444;2024-02-23T05:35:08;4.57;;;1.67;;
38083;SDS011;23894;51.466;7.444;2024-02-23T05:37:09;3.58;;;1.60;;
38083;SDS011;23894;51.466;7.444;2024-02-23T05:39:10;3.92;;;1.30;;
38083;SDS011;23894;51.466;7.444;2024-02-23T05:41:12;6.28;;;1.70;;
38083;SDS011;23894;51.466;7.444;2024-02-23T05:43:13;6.65;;;1.70;;
38083;SDS011;23894;51.466;7.444;2024-02-23T05:45:14;5.03;;;1.40;;
38083;SDS011;23894;51.466;7.444;2024-02-23T05:47:15;7.05;;;1.60;;
38083;SDS011;23894;51.466;7.444;2024-02-23T05:49:16;3.45;;;1.33;;
38083;SDS011;23894;51.466;7.444;2024-02-23T05:51:17;4.22;;;1.58;;
38083;SDS011;23894;51.466;7.444;2024-02-23T05:53:18;4.90;;;1.60;;
38083;SDS011;23894;51.466;7.444;2024-02-23T05:55:19;4.85;;;1.48;;
38083;SDS011;23894;51.466;7.444;2024-02-23T05:57:20;6.55;;;1.40;;
38083;SDS011;23894;51.466;7.444;2024-02-23T05:59:21;5.70;;;1.70;;
38083;SDS011;23894;51.466;7.444;2024-02-23T06:01:22;4.05;;;1.60;;
38083;SDS011;23894;51.466;7.444;2024-02-23T06:03:23;5.75;;;1.65;;
38083;SDS011;23894;51.466;7.444;2024-02-23T06:05:24;5.63;;;2.03;;
38083;SDS011;23894;51.466;7.444;2024-02-23T06:07:25;3.27;;;1.30;;
38083;SDS011;23894;51.466;7.444;2024-02-23T06:09:29;6.38;;;1.80;;
38083;SDS011;23894;51.466;7.444;2024-02-23T06:11:30;4.15;;;1.40;;
38083;SDS011;23894;51.466;7.444;2024-02-23T06:13:31;7.55;;;1.60;;
38083;SDS011;23894;51.466;7.444;2024-02-23T06:15:33;6.72;;;1.60;;
38083;SDS011;23894;51.466;7.444;2024-02-23T06:17:33;3.63;;;1.50;;
38083;SDS011;23894;51.466;7.444;2024-02-23T06:19:34;5.88;;;1.52;;
38083;SDS011;23894;51.466;7.444;2024-02-23T06:21:35;7.05;;;1.85;;
38083;SDS011;23894;51.466;7.444;2024-02-23T06:23:36;4.47;;;1.50;;
38083;SDS011;23894;51.466;7.444;2024-02-23T06:25:37;3.35;;;1.48;;
38083;SDS011;23894;51.466;7.444;2024-02-23T06:27:38;4.70;;;1.57;;
38083;SDS011;23894;51.466;7.444;2024-02-23T06:29:40;5.30;;;1.70;;
38083;SDS011;23894;51.466;7.444;2024-02-23T06:31:41;5.28;;;1.40;;
38083;SDS011;23894;51.466;7.444;2024-02-23T06:33:48;3.88;;;1.50;;
38083;SDS011;23894;51.466;7.444;2024-02-23T06:35:51;7.13;;;1.60;;
38083;SDS011;23894;51.466;7.444;2024-02-23T06:37:52;6.18;;;1.63;;
38083;SDS011;23894;51.466;7.444;2024-02-23T06:39:53;3.75;;;1.48;;
38083;SDS011;23894;51.466;7.444;2024-02-23T06:41:54;5.57;;;1.75;;
38083;SDS011;23894;51.466;7.444;2024-02-23T06:43:57;5.75;;;1.50;;
38083;SDS011;23894;51.466;7.444;2024-02-23T06:45:58;4.63;;;1.42;;
38083;SDS011;23894;51.466;7.444;2024-02-23T06:47:59;5.70;;;1.40;;
38083;SDS011;23894;51.466;7.444;2024-02-23T06:50:00;5.05;;;1.60;;
38083;SDS011;23894;51.466;7.444;2024-02-23T06:52:01;5.85;;;1.85;;
38083;SDS011;23894;51.466;7.444;2024-02-23T06:54:03;3.72;;;1.50;;
38083;SDS011;23894;51.466;7.444;2024-02-23T06:56:04;4.85;;;1.67;;
38083;SDS011;23894;51.466;7.444;2024-02-23T06:58:05;4.22;;;1.50;;
38083;SDS011;23894;51.466;7.444;2024-02-23T07:00:07;5.60;;;1.73;;
38083;SDS011;23894;51.466;7.444;2024-02-23T07:02:08;4.00;;;1.70;;
38083;SDS011;23894;51.466;7.444;2024-02-23T07:04:09;6.10;;;1.75;;
38083;SDS011;23894;51.466;7.444;2024-02-23T07:06:10;4.55;;;1.60;;
38083;SDS011;23894;51.466;7.444;2024-02-23T07:08:12;5.05;;;1.63;;
38083;SDS011;23894;51.466;7.444;2024-02-23T07:10:13;5.35;;;1.90;;
38083;SDS011;23894;51.466;7.444;2024-02-23T07:12:13;4.15;;;1.60;;
38083;SDS011;23894;51.466;7.444;2024-02-23T07:14:15;5.38;;;1.52;;
38083;SDS011;23894;51.466;7.444;2024-02-23T07:16:17;4.20;;;1.50;;
38083;SDS011;23894;51.466;7.444;2024-02-23T07:18:18;3.60;;;1.30;;
38083;SDS011;23894;51.466;7.444;2024-02-23T07:20:19;5.53;;;1.50;;
38083;SDS011;23894;51.466;7.444;2024-02-23T07:22:20;3.60;;;1.50;;
38083;SDS011;23894;51.466;7.444;2024-02-23T07:24:21;4.53;;;1.45;;
38083;SDS011;23894;51.466;7.444;2024-02-23T07:26:22;4.95;;;1.50;;
38083;SDS011;23894;51.466;7.444;2024-02-23T07:28:23;5.88;;;1.73;;
38083;SDS011;23894;51.466;7.444;2024-02-23T07:30:23;4.53;;;1.55;;
38083;SDS011;23894;51.466;7.444;2024-02-23T07:32:24;3.80;;;1.58;;
38083;SDS011;23894;51.466;7.444;2024-02-23T07:34:25;4.00;;;1.70;;
38083;SDS011;23894;51.466;7.444;2024-02-23T07:36:27;5.00;;;1.50;;
38083;SDS011;23894;51.466;7.444;2024-02-23T07:38:28;4.38;;;1.48;;
38083;SDS011;23894;51.466;7.444;2024-02-23T07:40:29;3.67;;;1.60;;
38083;SDS011;23894;51.466;7.444;2024-02-23T07:42:32;6.22;;;1.63;;
38083;SDS011;23894;51.466;7.444;2024-02-23T07:44:35;5.78;;;1.60;;
38083;SDS011;23894;51.466;7.444;2024-02-23T07:46:37;3.90;;;1.40;;
38083;SDS011;23894;51.466;7.444;2024-02-23T07:48:38;6.45;;;1.60;;
38083;SDS011;23894;51.466;7.444;2024-02-23T07:50:39;4.53;;;1.40;;
38083;SDS011;23894;51.466;7.444;2024-02-23T07:52:40;4.88;;;1.50;;
38083;SDS011;23894;51.466;7.444;2024-02-23T07:54:41;3.08;;;1.30;;
38083;SDS011;23894;51.466;7.444;2024-02-23T07:56:42;3.75;;;1.27;;
38083;SDS011;23894;51.466;7.444;2024-02-23T07:58:43;8.98;;;1.70;;
38083;SDS011;23894;51.466;7.444;2024-02-23T08:00:44;5.03;;;1.60;;
38083;SDS011;23894;51.466;7.444;2024-02-23T08:02:46;4.25;;;1.33;;
38083;SDS011;23894;51.466;7.444;2024-02-23T08:04:47;5.97;;;1.40;;
38083;SDS011;23894;51.466;7.444;2024-02-23T08:06:50;4.40;;;1.50;;
38083;SDS011;23894;51.466;7.444;2024-02-23T08:08:51;5.22;;;1.40;;
38083;SDS011;23894;51.466;7.444;2024-02-23T08:10:53;4.30;;;1.67;;
38083;SDS011;23894;51.466;7.444;2024-02-23T08:12:54;4.50;;;1.58;;
38083;SDS011;23894;51.466;7.444;2024-02-23T08:14:55;3.78;;;1.40;;
38083;SDS011;23894;51.466;7.444;2024-02-23T08:16:56;6.18;;;1.60;;
38083;SDS011;23894;51.466;7.444;2024-02-23T08:18:57;4.80;;;1.33;;
38083;SDS011;23894;51.466;7.444;2024-02-23T08:20:58;3.30;;;1.20;;
38083;SDS011;23894;51.466;7.444;2024-02-23T08:23:02;4.97;;;1.60;;
38083;SDS011;23894;51.466;7.444;2024-02-23T08:25:03;5.50;;;1.50;;
38083;SDS011;23894;51.466;7.444;2024-02-23T08:27:04;5.25;;;1.73;;
38083;SDS011;23894;51.466;7.444;2024-02-23T08:29:05;4.23;;;1.77;;
38083;SDS011;23894;51.466;7.444;2024-02-23T08:31:06;4.00;;;1.42;;
38083;SDS011;23894;51.466;7.444;2024-02-23T08:33:07;3.90;;;1.50;;
38083;SDS011;23894;51.466;7.444;2024-02-23T08:35:09;4.05;;;1.40;;
38083;SDS011;23894;51.466;7.444;2024-02-23T08:37:10;4.35;;;1.40;;
38083;SDS011;23894;51.466;7.444;2024-02-23T08:39:12;4.30;;;1.65;;
38083;SDS011;23894;51.466;7.444;2024-02-23T08:41:13;6.22;;;1.50;;
38083;SDS011;23894;51.466;7.444;2024-02-23T08:43:14;6.65;;;1.50;;
38083;SDS011;23894;51.466;7.444;2024-02-23T08:45:15;6.57;;;1.58;;
38083;SDS011;23894;51.466;7.444;2024-02-23T08:47:16;6.25;;;1.73;;
38083;SDS011;23894;51.466;7.444;2024-02-23T08:49:17;3.33;;;1.20;;
38083;SDS011;23894;51.466;7.444;2024-02-23T08:51:18;7.00;;;1.60;;
38083;SDS011;23894;51.466;7.444;2024-02-23T08:53:19;7.82;;;1.70;;
38083;SDS011;23894;51.466;7.444;2024-02-23T08:55:20;4.82;;;1.40;;
38083;SDS011;23894;51.466;7.444;2024-02-23T08:57:21;4.38;;;1.40;;
38083;SDS011;23894;51.466;7.444;2024-02-23T08:59:23;3.97;;;1.40;;
38083;SDS011;23894;51.466;7.444;2024-02-23T09:01:24;3.17;;;1.30;;
38083;SDS011;23894;51.466;7.444;2024-02-23T09:03:25;5.50;;;1.77;;
38083;SDS011;23894;51.466;7.444;2024-02-23T09:05:26;4.20;;;1.50;;
38083;SDS011;23894;51.466;7.444;2024-02-23T09:07:27;5.30;;;1.65;;
38083;SDS011;23894;51.466;7.444;2024-02-23T09:09:28;4.95;;;1.60;;
38083;SDS011;23894;51.466;7.444;2024-02-23T09:11:30;4.63;;;1.58;;
38083;SDS011;23894;51.466;7.444;2024-02-23T09:13:31;4.78;;;1.30;;
38083;SDS011;23894;51.466;7.444;2024-02-23T09:15:32;4.90;;;1.58;;
38083;SDS011;23894;51.466;7.444;2024-02-23T09:17:32;3.83;;;1.35;;
38083;SDS011;23894;51.466;7.444;2024-02-23T09:19:34;4.93;;;1.63;;
38083;SDS011;23894;51.466;7.444;2024-02-23T09:21:34;4.45;;;1.30;;
38083;SDS011;23894;51.466;7.444;2024-02-23T09:23:35;4.82;;;1.60;;
38083;SDS011;23894;51.466;7.444;2024-02-23T09:25:36;4.60;;;1.60;;
38083;SDS011;23894;51.466;7.444;2024-02-23T09:27:37;4.63;;;1.58;;
38083;SDS011;23894;51.466;7.444;2024-02-23T09:29:43;4.60;;;1.50;;
38083;SDS011;23894;51.466;7.444;2024-02-23T09:31:44;6.38;;;1.60;;
38083;SDS011;23894;51.466;7.444;2024-02-23T09:33:45;6.75;;;1.75;;
38083;SDS011;23894;51.466;7.444;2024-02-23T09:35:46;5.05;;;1.48;;
38083;SDS011;23894;51.466;7.444;2024-02-23T09:37:47;3.30;;;1.35;;
38083;SDS011;23894;51.466;7.444;2024-02-23T09:39:48;6.50;;;1.63;;
38083;SDS011;23894;51.466;7.444;2024-02-23T09:41:52;5.03;;;1.60;;
38083;SDS011;23894;51.466;7.444;2024-02-23T09:43:55;6.88;;;1.80;;
38083;SDS011;23894;51.466;7.444;2024-02-23T09:45:59;3.97;;;1.60;;
38083;SDS011;23894;51.466;7.444;2024-02-23T09:48:00;4.40;;;1.45;;
38083;SDS011;23894;51.466;7.444;2024-02-23T09:50:02;4.97;;;1.40;;
38083;SDS011;23894;51.466;7.444;2024-02-23T09:52:06;6.22;;;1.80;;
38083;SDS011;23894;51.466;7.444;2024-02-23T09:54:09;5.40;;;1.40;;
38083;SDS011;23894;51.466;7.444;2024-02-23T09:56:10;4.38;;;1.40;;
38083;SDS011;23894;51.466;7.444;2024-02-23T09:58:12;5.20;;;1.40;;
38083;SDS011;23894;51.466;7.444;2024-02-23T10:00:17;4.70;;;1.42;;
38083;SDS011;23894;51.466;7.444;2024-02-23T10:02:18;6.07;;;1.50;;
38083;SDS011;23894;51.466;7.444;2024-02-23T10:04:19;4.88;;;1.60;;
38083;SDS011;23894;51.466;7.444;2024-02-23T10:06:20;5.53;;;1.50;;
38083;SDS011;23894;51.466;7.444;2024-02-23T10:08:21;6.35;;;1.70;;
38083;SDS011;23894;51.466;7.444;2024-02-23T10:10:24;8.27;;;1.33;;
38083;SDS011;23894;51.466;7.444;2024-02-23T10:12:26;3.88;;;1.58;;
38083;SDS011;23894;51.466;7.444;2024-02-23T10:14:28;3.42;;;1.35;;
38083;SDS011;23894;51.466;7.444;2024-02-23T10:16:28;5.53;;;1.60;;
38083;SDS011;23894;51.466;7.444;2024-02-23T10:18:29;4.17;;;1.40;;
38083;SDS011;23894;51.466;7.444;2024-02-23T10:20:30;3.72;;;1.40;;
38083;SDS011;23894;51.466;7.444;2024-02-23T10:22:31;5.65;;;1.30;;
38083;SDS011;23894;51.466;7.444;2024-02-23T10:24:32;4.07;;;1.40;;
38083;SDS011;23894;51.466;7.444;2024-02-23T10:26:33;4.28;;;1.50;;
38083;SDS011;23894;51.466;7.444;2024-02-23T10:28:35;5.07;;;1.40;;
38083;SDS011;23894;51.466;7.444;2024-02-23T10:30:38;5.07;;;1.65;;
38083;SDS011;23894;51.466;7.444;2024-02-23T10:32:39;5.05;;;1.50;;
38083;SDS011;23894;51.466;7.444;2024-02-23T10:34:42;3.83;;;1.30;;
38083;SDS011;23894;51.466;7.444;2024-02-23T10:36:43;5.75;;;1.65;;
38083;SDS011;23894;51.466;7.444;2024-02-23T10:38:45;4.23;;;1.40;;
38083;SDS011;23894;51.466;7.444;2024-02-23T10:40:47;3.42;;;1.35;;
38083;SDS011;23894;51.466;7.444;2024-02-23T10:42:48;3.70;;;1.40;;
38083;SDS011;23894;51.466;7.444;2024-02-23T10:44:51;4.20;;;1.38;;
38083;SDS011;23894;51.466;7.444;2024-02-23T10:46:53;2.25;;;1.05;;
38083;SDS011;23894;51.466;7.444;2024-02-23T10:48:54;3.97;;;1.15;;
38083;SDS011;23894;51.466;7.444;2024-02-23T10:50:56;4.03;;;1.33;;
38083;SDS011;23894;51.466;7.444;2024-02-23T10:52:58;4.93;;;1.40;;
38083;SDS011;23894;51.466;7.444;2024-02-23T10:55:00;3.05;;;1.25;;
38083;SDS011;23894;51.466;7.444;2024-02-23T10:57:04;3.88;;;1.38;;
38083;SDS011;23894;51.466;7.444;2024-02-23T10:59:05;4.35;;;1.33;;
38083;SDS011;23894;51.466;7.444;2024-02-23T11:01:07;4.25;;;1.25;;
38083;SDS011;23894;51.466;7.444;2024-02-23T11:03:09;6.35;;;1.50;;
38083;SDS011;23894;51.466;7.444;2024-02-23T11:05:10;4.13;;;1.35;;
38083;SDS011;23894;51.466;7.444;2024-02-23T11:07:13;3.17;;;1.30;;
38083;SDS011;23894;51.466;7.444;2024-02-23T11:09:14;3.45;;;1.30;;
38083;SDS011;23894;51.466;7.444;2024-02-23T11:11:15;4.27;;;1.30;;
38083;SDS011;23894;51.466;7.444;2024-02-23T11:13:17;3.63;;;1.10;;
38083;SDS011;23894;51.466;7.444;2024-02-23T11:15:28;2.92;;;1.10;;
38083;SDS011;23894;51.466;7.444;2024-02-23T11:17:30;5.35;;;1.40;;
38083;SDS011;23894;51.466;7.444;2024-02-23T11:19:34;3.33;;;1.15;;
38083;SDS011;23894;51.466;7.444;2024-02-23T11:21:36;3.13;;;1.20;;
38083;SDS011;23894;51.466;7.444;2024-02-23T11:23:40;3.30;;;1.10;;
38083;SDS011;23894;51.466;7.444;2024-02-23T11:25:42;2.30;;;1.02;;
38083;SDS011;23894;51.466;7.444;2024-02-23T11:27:43;5.40;;;1.30;;
38083;SDS011;23894;51.466;7.444;2024-02-23T11:29:45;4.20;;;1.20;;
38083;SDS011;23894;51.466;7.444;2024-02-23T11:31:46;3.05;;;1.08;;
38083;SDS011;23894;51.466;7.444;2024-02-23T11:33:49;4.07;;;1.20;;
38083;SDS011;23894;51.466;7.444;2024-02-23T11:35:50;2.38;;;1.00;;
38083;SDS011;23894;51.466;7.444;2024-02-23T11:37:53;2.50;;;1.10;;
38083;SDS011;23894;51.466;7.444;2024-02-23T11:40:00;2.60;;;0.98;;
38083;SDS011;23894;51.466;7.444;2024-02-23T11:42:03;2.42;;;1.08;;
38083;SDS011;23894;51.466;7.444;2024-02-23T11:44:05;3.47;;;1.17;;
38083;SDS011;23894;51.466;7.444;2024-02-23T11:46:07;3.03;;;1.13;;
38083;SDS011;23894;51.466;7.444;2024-02-23T11:48:08;2.83;;;0.98;;
38083;SDS011;23894;51.466;7.444;2024-02-23T11:50:09;2.78;;;1.00;;
38083;SDS011;23894;51.466;7.444;2024-02-23T11:52:10;4.00;;;0.98;;
38083;SDS011;23894;51.466;7.444;2024-02-23T11:54:12;2.80;;;0.90;;
38083;SDS011;23894;51.466;7.444;2024-02-23T11:56:13;3.85;;;1.02;;
38083;SDS011;23894;51.466;7.444;2024-02-23T11:58:15;3.00;;;1.02;;
38083;SDS011;23894;51.466;7.444;2024-02-23T12:00:16;2.05;;;1.00;;
38083;SDS011;23894;51.466;7.444;2024-02-23T12:02:17;2.15;;;0.90;;
38083;SDS011;23894;51.466;7.444;2024-02-23T12:04:18;1.98;;;0.80;;
38083;SDS011;23894;51.466;7.444;2024-02-23T12:06:19;1.73;;;0.77;;
38083;SDS011;23894;51.466;7.444;2024-02-23T12:08:21;5.00;;;1.23;;
38083;SDS011;23894;51.466;7.444;2024-02-23T12:10:22;3.15;;;1.10;;
38083;SDS011;23894;51.466;7.444;2024-02-23T12:12:25;2.60;;;1.10;;